createdAt,value
2019-02-26T00:00:34.506Z,0.00
2019-02-26T00:01:34.399Z,0.00
2019-02-26T00:02:34.374Z,0.00
2019-02-26T00:03:35.423Z,0.00
2019-02-26T00:04:35.144Z,0.00
2019-02-26T00:05:34.370Z,0.00
2019-02-26T00:06:34.405Z,0.00
2019-02-26T00:07:34.435Z,0.00
2019-02-26T00:08:34.386Z,0.00
2019-02-26T00:09:35.328Z,0.00
2019-02-26T00:10:36.457Z,0.00
2019-02-26T00:11:36.211Z,0.00
2019-02-26T00:12:35.583Z,0.00
2019-02-26T00:13:36.526Z,0.00
2019-02-26T00:14:34.490Z,0.00
2019-02-26T00:15:35.741Z,0.00
2019-02-26T00:16:37.612Z,0.00
2019-02-26T00:17:38.612Z,0.00
2019-02-26T00:18:34.441Z,0.00
2019-02-26T00:19:34.511Z,0.00
2019-02-26T00:20:36.554Z,0.00
2019-02-26T00:21:34.442Z,0.00
2019-02-26T00:22:36.644Z,0.00
2019-02-26T00:23:34.454Z,0.00
2019-02-26T00:24:35.209Z,0.00
2019-02-26T00:25:34.504Z,0.00
2019-02-26T00:26:36.163Z,0.00
2019-02-26T00:27:35.131Z,0.00
2019-02-26T00:28:36.313Z,0.00
2019-02-26T00:29:34.489Z,0.00
2019-02-26T00:30:37.408Z,0.00
2019-02-26T00:31:34.497Z,0.00
2019-02-26T00:32:36.144Z,0.00
2019-02-26T00:33:34.539Z,0.00
2019-02-26T00:34:35.020Z,0.00
2019-02-26T00:35:34.539Z,0.00
2019-02-26T00:36:36.399Z,0.00
2019-02-26T00:37:34.548Z,0.00
2019-02-26T00:38:35.420Z,0.00
2019-02-26T00:39:34.557Z,0.00
2019-02-26T00:40:36.659Z,0.00
2019-02-26T00:41:35.812Z,0.00
2019-02-26T00:42:36.048Z,0.00
2019-02-26T00:43:35.015Z,0.00
2019-02-26T00:44:35.473Z,0.00
2019-02-26T00:45:36.247Z,0.00
2019-02-26T00:46:35.233Z,0.00
2019-02-26T00:47:36.348Z,0.00
2019-02-26T00:48:36.020Z,0.00
2019-02-26T00:49:34.646Z,0.00
2019-02-26T00:50:35.535Z,0.00
2019-02-26T00:51:34.579Z,0.00
2019-02-26T00:52:35.435Z,0.00
2019-02-26T00:53:34.759Z,0.00
2019-02-26T00:54:36.474Z,0.00
2019-02-26T00:55:35.657Z,0.00
2019-02-26T00:56:36.360Z,0.00
2019-02-26T00:57:36.462Z,0.00
2019-02-26T00:58:36.988Z,0.00
2019-02-26T00:59:36.396Z,0.00
2019-02-26T01:00:35.496Z,0.00
2019-02-26T01:01:34.628Z,0.00
2019-02-26T01:02:34.617Z,0.00
2019-02-26T01:03:34.654Z,0.00
2019-02-26T01:04:34.637Z,0.00
2019-02-26T01:05:36.346Z,0.00
2019-02-26T01:06:34.643Z,0.00
2019-02-26T01:07:34.652Z,0.00
2019-02-26T01:08:35.755Z,0.00
2019-02-26T01:09:34.663Z,0.00
2019-02-26T01:10:36.730Z,0.00
2019-02-26T01:11:34.730Z,0.00
2019-02-26T01:12:35.726Z,0.00
2019-02-26T01:13:34.737Z,0.00
2019-02-26T01:14:34.724Z,0.00
2019-02-26T01:15:34.686Z,0.00
2019-02-26T01:16:34.687Z,0.00
2019-02-26T01:17:35.747Z,0.00
2019-02-26T01:18:34.715Z,0.00
2019-02-26T01:19:36.346Z,0.00
2019-02-26T01:20:34.744Z,0.00
2019-02-26T01:21:35.905Z,0.00
2019-02-26T01:22:35.347Z,0.00
2019-02-26T01:23:34.749Z,0.00
2019-02-26T01:24:35.129Z,0.00
2019-02-26T01:25:38.212Z,0.00
2019-02-26T01:26:34.876Z,0.00
2019-02-26T01:27:34.810Z,0.00
2019-02-26T01:28:34.860Z,0.00
2019-02-26T01:29:34.784Z,0.00
2019-02-26T01:30:36.200Z,0.00
2019-02-26T01:31:34.816Z,0.00
2019-02-26T01:32:34.777Z,0.00
2019-02-26T01:33:34.815Z,0.00
2019-02-26T01:34:34.793Z,0.00
2019-02-26T01:35:35.592Z,0.00
2019-02-26T01:36:34.802Z,0.00
2019-02-26T01:37:36.614Z,0.00
2019-02-26T01:38:37.448Z,0.00
2019-02-26T01:39:35.671Z,0.00
2019-02-26T01:40:34.823Z,0.00
2019-02-26T01:41:34.843Z,0.00
2019-02-26T01:42:34.828Z,0.00
2019-02-26T01:43:34.832Z,0.00
2019-02-26T01:44:35.565Z,0.00
2019-02-26T01:45:34.907Z,0.00
2019-02-26T01:46:36.509Z,0.00
2019-02-26T01:47:34.837Z,0.00
2019-02-26T01:48:36.565Z,0.00
2019-02-26T01:49:34.895Z,0.00
2019-02-26T01:50:35.658Z,0.00
2019-02-26T01:51:35.930Z,0.00
2019-02-26T01:52:35.365Z,0.00
2019-02-26T01:53:34.883Z,0.00
2019-02-26T01:54:36.937Z,0.00
2019-02-26T01:55:34.875Z,0.00
2019-02-26T01:56:36.472Z,0.00
2019-02-26T01:57:34.856Z,0.00
2019-02-26T01:58:34.923Z,0.00
2019-02-26T01:59:34.868Z,0.00
2019-02-26T02:00:35.035Z,0.00
2019-02-26T02:01:34.913Z,0.00
2019-02-26T02:02:34.925Z,0.00
2019-02-26T02:03:34.930Z,0.00
2019-02-26T02:04:37.104Z,0.00
2019-02-26T02:05:34.905Z,0.00
2019-02-26T02:06:36.909Z,0.00
2019-02-26T02:07:34.930Z,0.00
2019-02-26T02:08:34.962Z,0.00
2019-02-26T02:09:35.008Z,0.00
2019-02-26T02:10:34.941Z,0.00
2019-02-26T02:11:35.818Z,0.00
2019-02-26T02:12:36.846Z,0.00
2019-02-26T02:13:35.867Z,0.00
2019-02-26T02:14:34.998Z,0.00
2019-02-26T02:15:35.723Z,0.00
2019-02-26T02:16:34.948Z,0.00
2019-02-26T02:17:35.550Z,0.00
2019-02-26T02:18:34.995Z,0.00
2019-02-26T02:19:35.000Z,0.00
2019-02-26T02:20:34.997Z,0.00
2019-02-26T02:21:35.634Z,0.00
2019-02-26T02:22:35.944Z,0.00
2019-02-26T02:23:34.975Z,0.00
2019-02-26T02:24:38.976Z,0.00
2019-02-26T02:25:36.162Z,0.00
2019-02-26T02:26:35.095Z,0.00
2019-02-26T02:27:34.992Z,0.00
2019-02-26T02:28:35.637Z,0.00
2019-02-26T02:29:35.007Z,0.00
2019-02-26T02:30:38.645Z,0.00
2019-02-26T02:31:37.242Z,0.00
2019-02-26T02:32:35.044Z,0.00
2019-02-26T02:33:37.361Z,0.00
2019-02-26T02:34:36.781Z,0.00
2019-02-26T02:35:35.037Z,0.00
2019-02-26T02:36:35.091Z,0.00
2019-02-26T02:37:35.099Z,0.00
2019-02-26T02:38:37.150Z,0.00
2019-02-26T02:39:35.076Z,0.00
2019-02-26T02:40:37.972Z,0.00
2019-02-26T02:41:35.049Z,0.00
2019-02-26T02:42:37.501Z,0.00
2019-02-26T02:43:35.100Z,0.00
2019-02-26T02:44:35.077Z,0.00
2019-02-26T02:45:35.073Z,0.00
2019-02-26T02:46:36.622Z,0.00
2019-02-26T02:47:36.979Z,0.00
2019-02-26T02:48:35.085Z,0.00
2019-02-26T02:49:37.426Z,0.00
2019-02-26T02:50:35.087Z,0.00
2019-02-26T02:51:37.171Z,0.00
2019-02-26T02:52:35.941Z,0.00
2019-02-26T02:53:35.127Z,0.00
2019-02-26T02:54:35.102Z,0.00
2019-02-26T02:55:35.100Z,0.00
2019-02-26T02:56:37.026Z,0.00
2019-02-26T02:57:35.126Z,0.00
2019-02-26T02:58:35.113Z,0.00
2019-02-26T02:59:37.358Z,0.00
2019-02-26T03:00:35.126Z,0.00
2019-02-26T03:01:35.187Z,0.00
2019-02-26T03:02:40.526Z,0.00
2019-02-26T03:03:35.157Z,0.00
2019-02-26T03:04:35.213Z,0.00
2019-02-26T03:05:38.042Z,0.00
2019-02-26T03:06:36.144Z,0.00
2019-02-26T03:07:35.142Z,0.00
2019-02-26T03:08:35.168Z,0.00
2019-02-26T03:09:37.792Z,0.00
2019-02-26T03:10:37.335Z,0.00
2019-02-26T03:11:38.638Z,0.00
2019-02-26T03:12:35.214Z,0.00
2019-02-26T03:13:35.205Z,0.00
2019-02-26T03:14:36.429Z,0.00
2019-02-26T03:15:35.866Z,0.00
2019-02-26T03:16:35.279Z,0.00
2019-02-26T03:17:35.251Z,0.00
2019-02-26T03:18:35.211Z,0.00
2019-02-26T03:19:37.564Z,0.00
2019-02-26T03:20:39.703Z,0.00
2019-02-26T03:21:35.295Z,0.00
2019-02-26T03:22:36.234Z,0.00
2019-02-26T03:23:37.992Z,0.00
2019-02-26T03:24:35.959Z,0.00
2019-02-26T03:25:35.232Z,0.00
2019-02-26T03:26:35.273Z,0.00
2019-02-26T03:27:36.885Z,0.00
2019-02-26T03:28:37.512Z,0.00
2019-02-26T03:29:35.339Z,0.00
2019-02-26T03:30:40.211Z,0.00
2019-02-26T03:31:40.537Z,0.00
2019-02-26T03:32:36.586Z,0.00
2019-02-26T03:33:35.319Z,0.00
2019-02-26T03:34:35.287Z,0.00
2019-02-26T03:35:35.301Z,0.00
2019-02-26T03:36:38.290Z,0.00
2019-02-26T03:37:36.603Z,0.00
2019-02-26T03:38:35.296Z,0.00
2019-02-26T03:39:35.299Z,0.00
2019-02-26T03:40:36.132Z,0.00
2019-02-26T03:41:35.285Z,0.00
2019-02-26T03:42:36.465Z,0.00
2019-02-26T03:43:37.065Z,0.00
2019-02-26T03:44:35.328Z,0.00
2019-02-26T03:45:35.355Z,0.00
2019-02-26T03:46:35.373Z,0.00
2019-02-26T03:47:35.321Z,0.00
2019-02-26T03:48:35.329Z,0.00
2019-02-26T03:49:35.370Z,0.00
2019-02-26T03:50:35.329Z,0.00
2019-02-26T03:51:39.122Z,0.00
2019-02-26T03:52:35.346Z,0.00
2019-02-26T03:53:36.328Z,0.00
2019-02-26T03:54:37.251Z,0.00
2019-02-26T03:55:36.223Z,0.00
2019-02-26T03:56:35.363Z,0.00
2019-02-26T03:57:35.360Z,0.00
2019-02-26T03:58:35.337Z,0.00
2019-02-26T03:59:35.440Z,0.00
2019-02-26T04:00:37.478Z,0.00
2019-02-26T04:01:35.378Z,0.00
2019-02-26T04:02:37.438Z,0.00
2019-02-26T04:03:37.193Z,0.00
2019-02-26T04:04:35.374Z,0.00
2019-02-26T04:05:35.399Z,0.00
2019-02-26T04:06:36.637Z,0.00
2019-02-26T04:07:36.079Z,0.00
2019-02-26T04:08:35.391Z,0.00
2019-02-26T04:09:39.117Z,0.00
2019-02-26T04:10:35.452Z,0.00
2019-02-26T04:11:35.390Z,0.00
2019-02-26T04:12:39.153Z,0.00
2019-02-26T04:13:35.395Z,0.00
2019-02-26T04:14:35.435Z,0.00
2019-02-26T04:15:36.442Z,0.00
2019-02-26T04:16:37.783Z,0.00
2019-02-26T04:17:36.976Z,0.00
2019-02-26T04:18:35.458Z,0.00
2019-02-26T04:19:35.463Z,0.00
2019-02-26T04:20:35.426Z,0.00
2019-02-26T04:21:35.441Z,0.00
2019-02-26T04:22:35.470Z,0.00
2019-02-26T04:23:36.089Z,0.00
2019-02-26T04:24:37.926Z,0.00
2019-02-26T04:25:36.456Z,0.00
2019-02-26T04:26:35.443Z,0.00
2019-02-26T04:27:36.337Z,0.00
2019-02-26T04:28:37.180Z,0.00
2019-02-26T04:29:37.621Z,0.00
2019-02-26T04:30:38.969Z,0.00
2019-02-26T04:31:35.521Z,0.00
2019-02-26T04:32:38.110Z,0.00
2019-02-26T04:33:36.025Z,0.00
2019-02-26T04:34:35.493Z,0.00
2019-02-26T04:35:35.498Z,0.00
2019-02-26T04:36:37.855Z,0.00
2019-02-26T04:37:38.306Z,0.00
2019-02-26T04:38:35.565Z,0.00
2019-02-26T04:39:36.874Z,0.00
2019-02-26T04:40:36.291Z,0.00
2019-02-26T04:41:35.498Z,0.00
2019-02-26T04:42:37.733Z,0.00
2019-02-26T04:43:36.286Z,0.00
2019-02-26T04:44:35.638Z,0.00
2019-02-26T04:45:35.557Z,0.00
2019-02-26T04:46:36.732Z,0.00
2019-02-26T04:47:35.543Z,0.00
2019-02-26T04:48:35.532Z,0.00
2019-02-26T04:49:36.770Z,0.00
2019-02-26T04:50:38.769Z,0.00
2019-02-26T04:51:36.318Z,0.00
2019-02-26T04:52:37.781Z,0.00
2019-02-26T04:53:36.446Z,0.00
2019-02-26T04:54:36.908Z,0.00
2019-02-26T04:55:38.224Z,0.00
2019-02-26T04:56:37.092Z,0.00
2019-02-26T04:57:39.400Z,0.00
2019-02-26T04:58:37.212Z,0.00
2019-02-26T04:59:37.902Z,0.00
2019-02-26T05:00:38.317Z,0.00
2019-02-26T05:01:35.614Z,0.00
2019-02-26T05:02:35.600Z,0.00
2019-02-26T05:03:35.619Z,0.00
2019-02-26T05:04:37.009Z,0.00
2019-02-26T05:05:37.137Z,0.00
2019-02-26T05:06:35.652Z,0.00
2019-02-26T05:07:38.189Z,0.00
2019-02-26T05:08:37.585Z,0.00
2019-02-26T05:09:35.711Z,0.00
2019-02-26T05:10:35.676Z,0.00
2019-02-26T05:11:40.232Z,0.00
2019-02-26T05:12:39.511Z,0.00
2019-02-26T05:13:35.663Z,0.00
2019-02-26T05:14:35.657Z,0.00
2019-02-26T05:15:35.632Z,0.00
2019-02-26T05:16:37.787Z,0.00
2019-02-26T05:17:35.717Z,0.00
2019-02-26T05:18:35.646Z,0.00
2019-02-26T05:19:36.523Z,0.00
2019-02-26T05:20:36.909Z,0.00
2019-02-26T05:21:37.876Z,0.00
2019-02-26T05:22:35.676Z,0.00
2019-02-26T05:23:35.730Z,0.00
2019-02-26T05:24:35.678Z,0.00
2019-02-26T05:25:39.235Z,0.00
2019-02-26T05:26:35.682Z,0.00
2019-02-26T05:27:36.367Z,0.00
2019-02-26T05:28:37.653Z,4.00
2019-02-26T05:29:35.869Z,4.00
2019-02-26T05:30:37.650Z,0.00
2019-02-26T05:31:37.667Z,4.00
2019-02-26T05:32:35.714Z,4.00
2019-02-26T05:33:35.837Z,4.00
2019-02-26T05:34:37.385Z,8.00
2019-02-26T05:35:37.830Z,4.00
2019-02-26T05:36:37.277Z,8.00
2019-02-26T05:37:40.317Z,8.00
2019-02-26T05:38:37.515Z,8.00
2019-02-26T05:39:35.791Z,12.00
2019-02-26T05:40:37.901Z,12.00
2019-02-26T05:41:35.751Z,20.00
2019-02-26T05:42:35.737Z,20.00
2019-02-26T05:43:35.749Z,24.00
2019-02-26T05:44:35.763Z,32.00
2019-02-26T05:45:35.886Z,36.00
2019-02-26T05:46:35.750Z,44.00
2019-02-26T05:47:35.816Z,48.00
2019-02-26T05:48:37.152Z,52.00
2019-02-26T05:49:38.693Z,60.00
2019-02-26T05:50:38.443Z,68.00
2019-02-26T05:51:38.068Z,68.00
2019-02-26T05:52:35.996Z,76.00
2019-02-26T05:53:35.815Z,84.00
2019-02-26T05:54:35.807Z,92.00
2019-02-26T05:55:35.812Z,104.00
2019-02-26T05:56:37.295Z,116.00
2019-02-26T05:57:35.917Z,128.00
2019-02-26T05:58:36.857Z,140.00
2019-02-26T05:59:35.813Z,152.00
2019-02-26T06:00:35.796Z,164.00
2019-02-26T06:01:35.796Z,184.00
2019-02-26T06:02:37.378Z,200.00
2019-02-26T06:03:38.324Z,224.00
2019-02-26T06:04:38.410Z,244.00
2019-02-26T06:05:35.917Z,268.00
2019-02-26T06:06:35.846Z,296.00
2019-02-26T06:07:36.802Z,316.00
2019-02-26T06:08:36.453Z,344.00
2019-02-26T06:09:35.890Z,376.00
2019-02-26T06:10:35.854Z,404.00
2019-02-26T06:11:38.645Z,436.00
2019-02-26T06:12:38.222Z,472.00
2019-02-26T06:13:38.258Z,512.00
2019-02-26T06:14:37.096Z,556.00
2019-02-26T06:15:35.983Z,596.00
2019-02-26T06:16:35.936Z,632.00
2019-02-26T06:17:40.606Z,668.00
2019-02-26T06:18:35.929Z,708.00
2019-02-26T06:19:37.761Z,744.00
2019-02-26T06:20:36.648Z,780.00
2019-02-26T06:21:39.618Z,820.00
2019-02-26T06:22:35.896Z,860.00
2019-02-26T06:23:36.705Z,896.00
2019-02-26T06:24:37.985Z,936.00
2019-02-26T06:25:35.912Z,964.00
2019-02-26T06:26:37.681Z,996.00
2019-02-26T06:27:35.983Z,1032.00
2019-02-26T06:28:40.096Z,1068.00
2019-02-26T06:29:37.428Z,1112.00
2019-02-26T06:30:35.929Z,1156.00
2019-02-26T06:31:37.664Z,1200.00
2019-02-26T06:32:37.920Z,1244.00
2019-02-26T06:33:36.602Z,1276.00
2019-02-26T06:34:36.054Z,1304.00
2019-02-26T06:35:36.749Z,1324.00
2019-02-26T06:36:36.166Z,1328.00
2019-02-26T06:37:37.798Z,1348.00
2019-02-26T06:38:36.616Z,1380.00
2019-02-26T06:39:36.292Z,1408.00
2019-02-26T06:40:36.979Z,1440.00
2019-02-26T06:41:39.545Z,1468.00
2019-02-26T06:42:37.957Z,1492.00
2019-02-26T06:43:39.654Z,1520.00
2019-02-26T06:44:36.885Z,1536.00
2019-02-26T06:45:37.837Z,1532.00
2019-02-26T06:46:38.286Z,1520.00
2019-02-26T06:47:36.016Z,1516.00
2019-02-26T06:48:36.027Z,1532.00
2019-02-26T06:49:35.977Z,1548.00
2019-02-26T06:50:36.778Z,1584.00
2019-02-26T06:51:36.151Z,1624.00
2019-02-26T06:52:38.203Z,1648.00
2019-02-26T06:53:35.998Z,1688.00
2019-02-26T06:54:35.990Z,1816.00
2019-02-26T06:55:36.023Z,1932.00
2019-02-26T06:56:40.776Z,1976.00
2019-02-26T06:57:36.019Z,2028.00
2019-02-26T06:58:37.966Z,2056.00
2019-02-26T06:59:36.871Z,2048.00
2019-02-26T07:00:36.035Z,2048.00
2019-02-26T07:01:37.933Z,2056.00
2019-02-26T07:02:36.050Z,2048.00
2019-02-26T07:03:36.022Z,2052.00
2019-02-26T07:04:36.036Z,2076.00
2019-02-26T07:05:36.036Z,2136.00
2019-02-26T07:06:38.005Z,2260.00
2019-02-26T07:07:36.095Z,2268.00
2019-02-26T07:08:36.689Z,2180.00
2019-02-26T07:09:36.855Z,2136.00
2019-02-26T07:10:36.067Z,2160.00
2019-02-26T07:11:37.847Z,2268.00
2019-02-26T07:12:36.141Z,2368.00
2019-02-26T07:13:36.875Z,2516.00
2019-02-26T07:14:36.109Z,2624.00
2019-02-26T07:15:36.097Z,2684.00
2019-02-26T07:16:39.783Z,2720.00
2019-02-26T07:17:38.019Z,2680.00
2019-02-26T07:18:36.175Z,2624.00
2019-02-26T07:19:38.007Z,2656.00
2019-02-26T07:20:39.481Z,2672.00
2019-02-26T07:21:38.021Z,2600.00
2019-02-26T07:22:36.103Z,2576.00
2019-02-26T07:23:38.200Z,2540.00
2019-02-26T07:24:38.351Z,2504.00
2019-02-26T07:25:38.424Z,2488.00
2019-02-26T07:26:38.178Z,2516.00
2019-02-26T07:27:38.330Z,2540.00
2019-02-26T07:28:36.206Z,2572.00
2019-02-26T07:29:39.772Z,2616.00
2019-02-26T07:30:37.487Z,2656.00
2019-02-26T07:31:36.167Z,2732.00
2019-02-26T07:32:38.291Z,2876.00
2019-02-26T07:33:36.968Z,3012.00
2019-02-26T07:34:36.258Z,3296.00
2019-02-26T07:35:37.380Z,3592.00
2019-02-26T07:36:36.244Z,3872.00
2019-02-26T07:37:38.092Z,4136.00
2019-02-26T07:38:41.248Z,4380.00
2019-02-26T07:39:36.256Z,4656.00
2019-02-26T07:40:38.647Z,4852.00
2019-02-26T07:41:36.828Z,5260.00
2019-02-26T07:42:37.378Z,5252.00
2019-02-26T07:43:41.161Z,5292.00
2019-02-26T07:44:36.241Z,5320.00
2019-02-26T07:45:36.221Z,5324.00
2019-02-26T07:46:37.982Z,5516.00
2019-02-26T07:47:36.479Z,5664.00
2019-02-26T07:48:36.270Z,5632.00
2019-02-26T07:49:36.226Z,5484.00
2019-02-26T07:50:39.661Z,5232.00
2019-02-26T07:51:38.043Z,5112.00
2019-02-26T07:52:36.249Z,5168.00
2019-02-26T07:53:36.260Z,5224.00
2019-02-26T07:54:37.760Z,5120.00
2019-02-26T07:55:38.327Z,5184.00
2019-02-26T07:56:36.283Z,5180.00
2019-02-26T07:57:36.299Z,5348.00
2019-02-26T07:58:38.488Z,5184.00
2019-02-26T07:59:37.002Z,5072.00
2019-02-26T08:00:37.735Z,4948.00
2019-02-26T08:01:37.631Z,4840.00
2019-02-26T08:02:37.297Z,4792.00
2019-02-26T08:03:36.294Z,4756.00
2019-02-26T08:04:37.043Z,4680.00
2019-02-26T08:05:36.308Z,4696.00
2019-02-26T08:06:38.362Z,4632.00
2019-02-26T08:07:36.309Z,4608.00
2019-02-26T08:08:37.451Z,4624.00
2019-02-26T19:00:46.840Z,0.00
2019-02-26T19:01:46.915Z,0.00
2019-02-26T19:02:46.839Z,0.00
2019-02-26T19:03:46.828Z,0.00
2019-02-26T19:04:48.796Z,0.00
2019-02-26T19:05:46.834Z,0.00
2019-02-26T19:06:46.829Z,0.00
2019-02-26T19:07:46.941Z,0.00
2019-02-26T19:08:47.031Z,0.00
2019-02-26T19:09:47.007Z,0.00
2019-02-26T19:10:46.841Z,0.00
2019-02-26T19:11:46.862Z,0.00
2019-02-26T19:12:46.861Z,0.00
2019-02-26T19:13:46.936Z,0.00
2019-02-26T19:14:46.895Z,0.00
2019-02-26T19:15:47.913Z,0.00
2019-02-26T19:16:46.871Z,0.00
2019-02-26T19:17:46.885Z,0.00
2019-02-26T19:18:46.882Z,0.00
2019-02-26T19:19:47.097Z,0.00
2019-02-26T19:20:49.100Z,0.00
2019-02-26T19:21:46.902Z,0.00
2019-02-26T19:22:46.910Z,0.00
2019-02-26T19:23:47.266Z,0.00
2019-02-26T19:24:46.962Z,0.00
2019-02-26T19:25:46.930Z,0.00
2019-02-26T19:26:47.405Z,0.00
2019-02-26T19:27:46.963Z,0.00
2019-02-26T19:28:46.941Z,0.00
2019-02-26T19:29:47.075Z,0.00
2019-02-26T19:30:46.966Z,0.00
2019-02-26T19:31:46.975Z,0.00
2019-02-26T19:32:47.871Z,0.00
2019-02-26T19:33:46.960Z,0.00
2019-02-26T19:34:46.966Z,0.00
2019-02-26T19:35:47.232Z,0.00
2019-02-26T19:36:46.989Z,0.00
2019-02-26T19:37:46.990Z,0.00
2019-02-26T19:38:46.994Z,0.00
2019-02-26T19:39:47.001Z,0.00
2019-02-26T19:40:47.034Z,0.00
2019-02-26T19:41:47.033Z,0.00
2019-02-26T19:42:47.021Z,0.00
2019-02-26T19:43:47.093Z,0.00
2019-02-26T19:44:47.054Z,0.00
2019-02-26T19:45:47.045Z,0.00
2019-02-26T19:46:49.394Z,0.00
2019-02-26T19:47:47.055Z,0.00
2019-02-26T19:48:47.061Z,0.00
2019-02-26T19:49:47.050Z,0.00
2019-02-26T19:50:48.689Z,0.00
2019-02-26T19:51:47.103Z,0.00
2019-02-26T19:52:54.311Z,0.00
2019-02-26T19:53:47.097Z,0.00
2019-02-26T19:54:47.095Z,0.00
2019-02-26T19:55:49.812Z,0.00
2019-02-26T19:56:47.233Z,0.00
2019-02-26T19:57:47.166Z,0.00
2019-02-26T19:58:47.131Z,0.00
2019-02-26T19:59:47.648Z,0.00
2019-02-26T20:00:47.119Z,0.00
2019-02-26T20:01:47.139Z,0.00
2019-02-26T20:02:47.131Z,0.00
2019-02-26T20:03:47.145Z,0.00
2019-02-26T20:04:47.179Z,0.00
2019-02-26T20:05:47.244Z,0.00
2019-02-26T20:06:47.153Z,0.00
2019-02-26T20:07:47.220Z,0.00
2019-02-26T20:08:47.409Z,0.00
2019-02-26T20:09:47.234Z,0.00
2019-02-26T20:10:49.104Z,0.00
2019-02-26T20:11:47.318Z,0.00
2019-02-26T20:12:47.225Z,0.00
2019-02-26T20:13:47.204Z,0.00
2019-02-26T20:14:48.983Z,0.00
2019-02-26T20:15:47.259Z,0.00
2019-02-26T20:16:47.215Z,0.00
2019-02-26T20:17:49.116Z,0.00
2019-02-26T20:18:47.220Z,0.00
2019-02-26T20:19:47.210Z,0.00
2019-02-26T20:20:47.457Z,0.00
2019-02-26T20:21:51.447Z,0.00
2019-02-26T20:22:47.245Z,0.00
2019-02-26T20:23:47.231Z,0.00
2019-02-26T20:24:47.259Z,0.00
2019-02-26T20:25:47.318Z,0.00
2019-02-26T20:26:47.580Z,0.00
2019-02-26T20:27:47.432Z,0.00
2019-02-26T20:28:47.271Z,0.00
2019-02-26T20:29:47.262Z,0.00
2019-02-26T20:30:47.271Z,0.00
2019-02-26T20:31:47.368Z,0.00
2019-02-26T20:32:47.295Z,0.00
2019-02-26T20:33:47.370Z,0.00
2019-02-26T20:34:47.309Z,0.00
2019-02-26T20:35:47.358Z,0.00
2019-02-26T20:36:48.814Z,0.00
2019-02-26T20:37:47.554Z,0.00
2019-02-26T20:38:47.314Z,0.00
2019-02-26T20:39:47.432Z,0.00
2019-02-26T20:40:48.916Z,0.00
2019-02-26T20:41:47.307Z,0.00
2019-02-26T20:42:48.231Z,0.00
2019-02-26T20:43:47.333Z,0.00
2019-02-26T20:44:47.374Z,0.00
2019-02-26T20:45:50.797Z,0.00
2019-02-26T20:46:47.394Z,0.00
2019-02-26T20:47:47.432Z,0.00
2019-02-26T20:48:47.344Z,0.00
2019-02-26T20:49:47.410Z,0.00
2019-02-26T20:50:47.355Z,0.00
2019-02-26T20:51:47.407Z,0.00
2019-02-26T20:52:47.377Z,0.00
2019-02-26T20:53:47.371Z,0.00
2019-02-26T20:54:47.387Z,0.00
2019-02-26T20:55:52.454Z,0.00
2019-02-26T20:56:47.404Z,0.00
2019-02-26T20:57:47.601Z,0.00
2019-02-26T20:58:47.416Z,0.00
2019-02-26T20:59:47.401Z,0.00
2019-02-26T21:00:48.269Z,0.00
2019-02-26T21:01:49.420Z,0.00
2019-02-26T21:02:47.426Z,0.00
2019-02-26T21:03:47.479Z,0.00
2019-02-26T21:04:47.422Z,0.00
2019-02-26T21:05:47.445Z,0.00
2019-02-26T21:06:50.488Z,0.00
2019-02-26T21:07:49.436Z,0.00
2019-02-26T21:08:47.465Z,0.00
2019-02-26T21:09:47.477Z,0.00
2019-02-26T21:10:48.080Z,0.00
2019-02-26T21:11:47.605Z,0.00
2019-02-26T21:12:47.527Z,0.00
2019-02-26T21:13:47.500Z,0.00
2019-02-26T21:14:47.522Z,0.00
2019-02-26T21:15:48.036Z,0.00
2019-02-26T21:16:47.498Z,0.00
2019-02-26T21:17:48.428Z,0.00
2019-02-26T21:18:47.556Z,0.00
2019-02-26T21:19:47.498Z,0.00
2019-02-26T21:20:49.212Z,0.00
2019-02-26T21:21:49.125Z,0.00
2019-02-26T21:22:47.518Z,0.00
2019-02-26T21:23:47.591Z,0.00
2019-02-26T21:24:47.611Z,0.00
2019-02-26T21:25:47.623Z,0.00
2019-02-26T21:26:47.576Z,0.00
2019-02-26T21:27:47.586Z,0.00
2019-02-26T21:28:47.585Z,0.00
2019-02-26T21:29:47.595Z,0.00
2019-02-26T21:30:47.575Z,0.00
2019-02-26T21:31:49.749Z,0.00
2019-02-26T21:32:47.660Z,0.00
2019-02-26T21:33:47.613Z,0.00
2019-02-26T21:34:48.077Z,0.00
2019-02-26T21:35:47.648Z,0.00
2019-02-26T21:36:47.837Z,0.00
2019-02-26T21:37:48.391Z,0.00
2019-02-26T21:38:47.600Z,0.00
2019-02-26T21:39:47.624Z,0.00
2019-02-26T21:40:49.690Z,0.00
2019-02-26T21:41:47.682Z,0.00
2019-02-26T21:42:47.699Z,0.00
2019-02-26T21:43:47.633Z,0.00
2019-02-26T21:44:47.648Z,0.00
2019-02-26T21:45:49.383Z,0.00
2019-02-26T21:46:47.678Z,0.00
2019-02-26T21:47:47.649Z,0.00
2019-02-26T21:48:47.685Z,0.00
2019-02-26T21:49:48.788Z,0.00
2019-02-26T21:50:47.763Z,0.00
2019-02-26T21:51:47.922Z,0.00
2019-02-26T21:52:59.247Z,0.00
2019-02-26T21:53:49.228Z,0.00
2019-02-26T21:54:47.955Z,0.00
2019-02-26T21:55:47.707Z,0.00
2019-02-26T21:56:48.971Z,0.00
2019-02-26T21:57:47.770Z,0.00
2019-02-26T21:58:47.718Z,0.00
2019-02-26T21:59:50.154Z,0.00
2019-02-26T22:00:47.724Z,0.00
2019-02-26T22:01:47.711Z,0.00
2019-02-26T22:02:51.932Z,0.00
2019-02-26T22:03:48.769Z,0.00
2019-02-26T22:04:47.748Z,0.00
2019-02-26T22:05:47.749Z,0.00
2019-02-26T22:06:47.850Z,0.00
2019-02-26T22:07:52.150Z,0.00
2019-02-26T22:08:47.782Z,0.00
2019-02-26T22:09:47.756Z,0.00
2019-02-26T22:10:47.803Z,0.00
2019-02-26T22:11:50.652Z,0.00
2019-02-26T22:12:47.809Z,0.00
2019-02-26T22:13:47.766Z,0.00
2019-02-26T22:14:47.815Z,0.00
2019-02-26T22:15:47.785Z,0.00
2019-02-26T22:16:48.960Z,0.00
2019-02-26T22:17:47.817Z,0.00
2019-02-26T22:18:47.814Z,0.00
2019-02-26T22:19:47.894Z,0.00
2019-02-26T22:20:47.809Z,0.00
2019-02-26T22:21:51.853Z,0.00
2019-02-26T22:22:48.069Z,0.00
2019-02-26T22:23:48.023Z,0.00
2019-02-26T22:24:47.833Z,0.00
2019-02-26T22:25:49.797Z,0.00
2019-02-26T22:26:47.852Z,0.00
2019-02-26T22:27:47.845Z,0.00
2019-02-26T22:28:47.953Z,0.00
2019-02-26T22:29:48.626Z,0.00
2019-02-26T22:30:47.947Z,0.00
2019-02-26T22:31:47.889Z,0.00
2019-02-26T22:32:47.888Z,0.00
2019-02-26T22:33:47.884Z,0.00
2019-02-26T22:34:47.908Z,0.00
2019-02-26T22:35:47.943Z,0.00
2019-02-26T22:36:47.891Z,0.00
2019-02-26T22:37:47.888Z,0.00
2019-02-26T22:38:49.112Z,0.00
2019-02-26T22:39:49.084Z,0.00
2019-02-26T22:40:47.982Z,0.00
2019-02-26T22:41:48.402Z,0.00
2019-02-26T22:42:48.054Z,0.00
2019-02-26T22:43:48.176Z,0.00
2019-02-26T22:44:47.930Z,0.00
2019-02-26T22:45:47.938Z,0.00
2019-02-26T22:46:47.970Z,0.00
2019-02-26T22:47:47.941Z,0.00
2019-02-26T22:48:48.078Z,0.00
2019-02-26T22:49:48.049Z,0.00
2019-02-26T22:50:47.989Z,0.00
2019-02-26T22:51:48.004Z,0.00
2019-02-26T22:52:47.966Z,0.00
2019-02-26T22:53:48.974Z,0.00
2019-02-26T22:54:48.348Z,0.00
2019-02-26T22:55:49.815Z,0.00
2019-02-26T22:56:47.984Z,0.00
2019-02-26T22:57:48.080Z,0.00
2019-02-26T22:58:48.020Z,0.00
2019-02-26T22:59:48.052Z,0.00
2019-02-26T23:00:49.398Z,0.00
2019-02-26T23:01:48.006Z,0.00
2019-02-26T23:02:48.030Z,0.00
2019-02-26T23:03:48.047Z,0.00
2019-02-26T23:04:48.047Z,0.00
2019-02-26T23:05:48.049Z,0.00
2019-02-26T23:06:48.167Z,0.00
2019-02-26T23:07:48.052Z,0.00
2019-02-26T23:08:48.036Z,0.00
2019-02-26T23:09:52.178Z,0.00
2019-02-26T23:10:48.088Z,0.00
2019-02-26T23:11:48.105Z,0.00
2019-02-26T23:12:48.058Z,0.00
2019-02-26T23:13:48.110Z,0.00
2019-02-26T23:14:48.169Z,0.00
2019-02-26T23:15:48.079Z,0.00
2019-02-26T23:16:51.703Z,0.00
2019-02-26T23:17:48.081Z,0.00
2019-02-26T23:18:48.162Z,0.00
2019-02-26T23:19:48.146Z,0.00
2019-02-26T23:20:48.124Z,0.00
2019-02-26T23:21:50.000Z,0.00
2019-02-26T23:22:48.129Z,0.00
2019-02-26T23:23:48.112Z,0.00
2019-02-26T23:24:48.132Z,0.00
2019-02-26T23:25:48.131Z,0.00
2019-02-26T23:26:48.127Z,0.00
2019-02-26T23:27:48.707Z,0.00
2019-02-26T23:28:48.161Z,0.00
2019-02-26T23:29:48.158Z,0.00
2019-02-26T23:30:48.161Z,0.00
2019-02-26T23:31:48.157Z,0.00
2019-02-26T23:32:48.187Z,0.00
2019-02-26T23:33:48.990Z,0.00
2019-02-26T23:34:48.188Z,0.00
2019-02-26T23:35:48.158Z,0.00
2019-02-26T23:36:48.164Z,0.00
2019-02-26T23:37:48.184Z,0.00
2019-02-26T23:38:48.182Z,0.00
2019-02-26T23:39:48.229Z,0.00
2019-02-26T23:40:48.213Z,0.00
2019-02-26T23:41:48.184Z,0.00
2019-02-26T23:42:48.292Z,0.00
2019-02-26T23:43:48.205Z,0.00
2019-02-26T23:44:50.830Z,0.00
2019-02-26T23:45:48.235Z,0.00
2019-02-26T23:46:48.235Z,0.00
2019-02-26T23:47:48.229Z,0.00
2019-02-26T23:48:48.226Z,0.00
2019-02-26T23:49:48.414Z,0.00
2019-02-26T23:50:48.305Z,0.00
2019-02-26T23:51:48.263Z,0.00
2019-02-26T23:52:48.275Z,0.00
2019-02-26T23:53:48.270Z,0.00
2019-02-26T23:54:48.255Z,0.00
2019-02-26T23:55:48.256Z,0.00
2019-02-26T23:56:49.816Z,0.00
